Time;durP1;ratioP1;P1;durP2;ratioP2;P2;SDS_P1;SDS_P2;PMS_P1;PMS_P2;Temp;Humidity;BMP_temperature;BMP_pressure;BME280_temperature;BME280_humidity;BME280_pressure;Samples;Min_cycle;Max_cycle;Signal;HPM_P1;HPM_P2
2023/01/17 00:02:09;;;;;;;;;;;;;;;;;;7367368;19;806;-72
2023/01/17 00:09:59;;;;;;;;;;;;;;;;;;7366829;19;843;-73
2023/01/17 00:12:27;;;;;;;;;;;;;;;;;;7367325;19;874;-72
2023/01/17 00:14:55;;;;;;;;;;;;;;;;;;7367195;19;2021;-73
2023/01/17 00:17:24;;;;;;;;;;;;;;;;;;7366948;19;907;-72
2023/01/17 01:35:43;;;;;;;;;;;;;;;;;;7368548;19;817;-74
2023/01/17 01:38:11;;;;;;;;;;;;;;;;;;7369909;19;786;-74
2023/01/17 01:40:39;;;;;;;;;;;;;;;;;;7370598;19;851;-75
2023/01/17 01:43:08;;;;;;;;;;;;;;;;;;7368838;19;1341;-73
2023/01/17 01:45:36;;;;;;;;;;;;;;;;;;7370156;19;873;-73
2023/01/17 01:48:04;;;;;;;;;;;;;;;;;;7368539;19;1830;-73
2023/01/17 01:50:32;;;;;;;;;;;;;;;;;;7370148;19;603;-74
2023/01/17 01:53:00;;;;;;;;;;;;;;;;;;7369595;19;1355;-73
2023/01/17 01:55:29;;;;;;;;;;;;;;;;;;7368290;19;820;-73
2023/01/17 01:57:57;;;;;;;;;;;;;;;;;;7369666;19;794;-74
2023/01/17 02:00:25;;;;;;;;;;;;;;;;;;7370107;19;1058;-73
2023/01/17 02:02:54;;;;;;;;;;;;;;;;;;7368901;19;1326;-74
2023/01/17 02:05:22;;;;;;;;;;;;;;;;;;7369722;19;886;-73
2023/01/17 02:07:50;;;;;;;;;;;;;;;;;;7368839;19;1851;-73
2023/01/17 02:10:18;;;;;;;;;;;;;;;;;;7370589;19;857;-72
2023/01/17 02:12:46;;;;;;;;;;;;;;;;;;7369274;19;1270;-73
2023/01/17 02:15:14;;;;;;;;;;;;;;;;;;7368573;19;850;-73
2023/01/17 02:17:43;;;;;;;;;;;;;;;;;;7368624;19;803;-76
2023/01/17 02:20:11;;;;;;;;;;;;;;;;;;7371037;19;830;-74
2023/01/17 02:22:39;;;;;;;;;;;;;;;;;;7371046;19;1283;-74
2023/01/17 02:25:07;;;;;;;;;;;;;;;;;;7373196;19;798;-74
2023/01/17 02:27:35;;;;;;;;;;;;;;;;;;7375926;19;1851;-79
2023/01/17 02:30:03;;;;;;;;;;;;;;;;;;7374721;19;800;-73
2023/01/17 02:32:32;;;;;;;;;;;;;;;;;;7375248;19;1607;-73
2023/01/17 02:35:02;;;;;;;;;;;;;;;;;;7372843;19;1522;-76
2023/01/17 02:37:32;;;;;;;;;;;;;;;;;;7374568;19;843;-78
2023/01/17 02:40:00;;;;;;;;;;;;;;;;;;7373844;19;927;-73
2023/01/17 02:42:28;;;;;;;;;;;;;;;;;;7372629;19;779;-73
2023/01/17 02:44:57;;;;;;;;;;;;;;;;;;7370848;19;1320;-77
2023/01/17 02:47:25;;;;;;;;;;;;;;;;;;7368934;19;807;-75
2023/01/17 02:49:54;;;;;;;;;;;;;;;;;;7365317;19;1849;-72
2023/01/17 02:52:22;;;;;;;;;;;;;;;;;;7370147;19;822;-72
2023/01/17 02:54:50;;;;;;;;;;;;;;;;;;7366233;19;1333;-71
2023/01/17 02:57:18;;;;;;;;;;;;;;;;;;7369920;19;870;-72
2023/01/17 02:59:46;;;;;;;;;;;;;;;;;;7368343;19;858;-72
2023/01/17 03:02:14;;;;;;;;;;;;;;;;;;7367990;19;858;-72
2023/01/17 03:04:43;;;;;;;;;;;;;;;;;;7366051;19;1282;-72
2023/01/17 03:07:11;;;;;;;;;;;;;;;;;;7369175;19;878;-73
2023/01/17 03:09:42;;;;;;;;;;;;;;;;;;7364909;19;1853;-73
2023/01/17 03:12:10;;;;;;;;;;;;;;;;;;7367778;19;717;-73
2023/01/17 03:14:38;;;;;;;;;;;;;;;;;;7362703;19;1329;-72
2023/01/17 03:17:06;;;;;;;;;;;;;;;;;;7367409;19;805;-71
2023/01/17 03:19:35;;;;;;;;;;;;;;;;;;7366182;19;779;-72
2023/01/17 03:22:03;;;;;;;;;;;;;;;;;;7368072;19;717;-72
2023/01/17 03:24:31;;;;;;;;;;;;;;;;;;7364867;19;1375;-72
2023/01/17 03:26:59;;;;;;;;;;;;;;;;;;7367070;19;818;-72
2023/01/17 03:29:27;;;;;;;;;;;;;;;;;;7362835;19;1846;-72
2023/01/17 03:31:55;;;;;;;;;;;;;;;;;;7365310;19;862;-71
2023/01/17 03:34:24;;;;;;;;;;;;;;;;;;7364267;19;1286;-72
2023/01/17 03:36:52;;;;;;;;;;;;;;;;;;7367573;19;874;-72
2023/01/17 03:39:20;;;;;;;;;;;;;;;;;;7366096;19;822;-72
2023/01/17 03:41:48;;;;;;;;;;;;;;;;;;7366442;19;858;-73
2023/01/17 03:44:16;;;;;;;;;;;;;;;;;;7363632;19;1279;-73
2023/01/17 03:46:44;;;;;;;;;;;;;;;;;;7365002;19;858;-72
2023/01/17 03:49:13;;;;;;;;;;;;;;;;;;7363820;19;1842;-72
2023/01/17 03:51:41;;;;;;;;;;;;;;;;;;7370132;19;1501;-72
2023/01/17 03:54:09;;;;;;;;;;;;;;;;;;7364045;19;1329;-71
2023/01/17 03:56:37;;;;;;;;;;;;;;;;;;7366125;19;775;-72
2023/01/17 03:59:05;;;;;;;;;;;;;;;;;;7366163;19;866;-71
2023/01/17 04:01:33;;;;;;;;;;;;;;;;;;7368532;19;878;-72
2023/01/17 04:04:01;;;;;;;;;;;;;;;;;;7371378;19;1344;-71
2023/01/17 04:06:30;;;;;;;;;;;;;;;;;;7375086;19;1572;-70
2023/01/17 04:08:58;;;;;;;;;;;;;;;;;;7371540;19;1853;-71
2023/01/17 04:11:26;;;;;;;;;;;;;;;;;;7372796;19;775;-71
2023/01/17 04:13:54;;;;;;;;;;;;;;;;;;7371491;19;1262;-72
2023/01/17 04:16:22;;;;;;;;;;;;;;;;;;7372126;19;806;-72
2023/01/17 04:18:50;;;;;;;;;;;;;;;;;;7371646;19;772;-70
2023/01/17 04:21:19;;;;;;;;;;;;;;;;;;7372592;19;1485;-71
2023/01/17 04:23:47;;;;;;;;;;;;;;;;;;7370538;19;1286;-72
2023/01/17 04:26:15;;;;;;;;;;;;;;;;;;7370900;19;881;-71
2023/01/17 04:28:43;;;;;;;;;;;;;;;;;;7370430;19;1837;-72
2023/01/17 04:31:11;;;;;;;;;;;;;;;;;;7372234;19;847;-71
2023/01/17 04:33:39;;;;;;;;;;;;;;;;;;7369010;19;1343;-72
2023/01/17 04:36:08;;;;;;;;;;;;;;;;;;7373181;19;799;-72
2023/01/17 04:38:36;;;;;;;;;;;;;;;;;;7369693;19;862;-73
2023/01/17 04:41:04;;;;;;;;;;;;;;;;;;7371257;19;850;-71
2023/01/17 04:43:33;;;;;;;;;;;;;;;;;;7369984;19;1507;-73
2023/01/17 04:46:03;;;;;;;;;;;;;;;;;;7370931;19;782;-73
2023/01/17 04:48:32;;;;;;;;;;;;;;;;;;7370389;19;1849;-73
2023/01/17 04:51:00;;;;;;;;;;;;;;;;;;7371287;19;575;-73
2023/01/17 04:53:28;;;;;;;;;;;;;;;;;;7370332;19;1279;-73
2023/01/17 04:55:56;;;;;;;;;;;;;;;;;;7371026;19;879;-73
2023/01/17 04:58:24;;;;;;;;;;;;;;;;;;7370471;19;807;-75
2023/01/17 05:00:53;;;;;;;;;;;;;;;;;;7369424;19;878;-74
2023/01/17 05:03:21;;;;;;;;;;;;;;;;;;7370488;19;1329;-72
2023/01/17 05:05:49;;;;;;;;;;;;;;;;;;7371007;19;749;-72
2023/01/17 05:08:18;;;;;;;;;;;;;;;;;;7371372;19;808;-73
2023/01/17 05:10:46;;;;;;;;;;;;;;;;;;7369282;19;776;-73
2023/01/17 05:13:14;;;;;;;;;;;;;;;;;;7368548;19;1282;-73
2023/01/17 05:15:42;;;;;;;;;;;;;;;;;;7370844;19;809;-73
2023/01/17 05:18:10;;;;;;;;;;;;;;;;;;7367952;19;843;-72
2023/01/17 05:20:38;;;;;;;;;;;;;;;;;;7368810;19;799;-73
2023/01/17 05:23:07;;;;;;;;;;;;;;;;;;7370072;19;1346;-73
2023/01/17 05:25:35;;;;;;;;;;;;;;;;;;7370855;19;815;-73
2023/01/17 05:28:03;;;;;;;;;;;;;;;;;;7370045;19;851;-76
2023/01/17 05:30:31;;;;;;;;;;;;;;;;;;7368117;19;1841;-75
2023/01/17 05:32:59;;;;;;;;;;;;;;;;;;7369845;19;1314;-75
2023/01/17 05:35:27;;;;;;;;;;;;;;;;;;7368621;19;812;-76
2023/01/17 05:37:56;;;;;;;;;;;;;;;;;;7369913;19;872;-73
2023/01/17 05:40:24;;;;;;;;;;;;;;;;;;7370842;19;855;-73
2023/01/17 05:42:52;;;;;;;;;;;;;;;;;;7368264;19;1362;-72
2023/01/17 05:45:20;;;;;;;;;;;;;;;;;;7373908;19;1453;-72
2023/01/17 05:47:48;;;;;;;;;;;;;;;;;;7369415;19;807;-72
2023/01/17 05:50:17;;;;;;;;;;;;;;;;;;7366792;19;1850;-73
2023/01/17 05:52:45;;;;;;;;;;;;;;;;;;7370131;19;1282;-73
2023/01/17 05:55:13;;;;;;;;;;;;;;;;;;7370508;19;798;-72
2023/01/17 05:57:41;;;;;;;;;;;;;;;;;;7369025;19;764;-74
2023/01/17 06:00:09;;;;;;;;;;;;;;;;;;7369782;19;862;-72
2023/01/17 06:02:37;;;;;;;;;;;;;;;;;;7369670;19;855;-73
2023/01/17 06:05:06;;;;;;;;;;;;;;;;;;7370062;19;799;-73
2023/01/17 06:07:34;;;;;;;;;;;;;;;;;;7371213;19;780;-72
2023/01/17 06:10:02;;;;;;;;;;;;;;;;;;7368351;19;1838;-73
2023/01/17 06:12:31;;;;;;;;;;;;;;;;;;7370226;19;816;-73
2023/01/17 06:14:59;;;;;;;;;;;;;;;;;;7367185;19;1326;-73
2023/01/17 06:17:27;;;;;;;;;;;;;;;;;;7369743;19;878;-73
2023/01/17 06:19:55;;;;;;;;;;;;;;;;;;7368536;19;802;-73
2023/01/17 06:22:23;;;;;;;;;;;;;;;;;;7373656;19;1502;-73
2023/01/17 06:24:51;;;;;;;;;;;;;;;;;;7365066;19;1266;-73
2023/01/17 06:27:20;;;;;;;;;;;;;;;;;;7369385;19;806;-73
2023/01/17 06:29:48;;;;;;;;;;;;;;;;;;7365722;19;1837;-73
2023/01/17 06:32:16;;;;;;;;;;;;;;;;;;7368390;19;796;-72
2023/01/17 06:34:44;;;;;;;;;;;;;;;;;;7365161;19;1282;-72
2023/01/17 06:37:12;;;;;;;;;;;;;;;;;;7369733;19;875;-71
2023/01/17 06:39:41;;;;;;;;;;;;;;;;;;7368658;19;829;-72
2023/01/17 06:42:09;;;;;;;;;;;;;;;;;;7369208;19;882;-72
2023/01/17 06:44:37;;;;;;;;;;;;;;;;;;7365671;19;1290;-72
2023/01/17 06:47:05;;;;;;;;;;;;;;;;;;7367194;19;812;-72
2023/01/17 06:49:33;;;;;;;;;;;;;;;;;;7366070;19;1863;-71
2023/01/17 06:52:01;;;;;;;;;;;;;;;;;;7368278;19;787;-73
2023/01/17 06:54:30;;;;;;;;;;;;;;;;;;7366221;19;1329;-73
2023/01/17 06:56:58;;;;;;;;;;;;;;;;;;7368120;19;890;-74
2023/01/17 06:59:26;;;;;;;;;;;;;;;;;;7365811;19;793;-73
2023/01/17 07:01:54;;;;;;;;;;;;;;;;;;7368773;19;807;-73
2023/01/17 07:04:22;;;;;;;;;;;;;;;;;;7365773;19;1418;-73
2023/01/17 07:06:50;;;;;;;;;;;;;;;;;;7369588;19;1499;-73
2023/01/17 07:09:19;;;;;;;;;;;;;;;;;;7365497;19;1842;-73
2023/01/17 07:11:47;;;;;;;;;;;;;;;;;;7370151;19;827;-73
2023/01/17 07:14:15;;;;;;;;;;;;;;;;;;7366058;19;1348;-72
2023/01/17 07:16:44;;;;;;;;;;;;;;;;;;7367222;19;739;-74
2023/01/17 07:19:13;;;;;;;;;;;;;;;;;;7366476;19;820;-73
2023/01/17 07:21:41;;;;;;;;;;;;;;;;;;7368193;19;776;-74
2023/01/17 07:24:09;;;;;;;;;;;;;;;;;;7366819;19;1294;-75
2023/01/17 07:26:39;;;;;;;;;;;;;;;;;;7368331;19;819;-74
2023/01/17 07:29:07;;;;;;;;;;;;;;;;;;7367364;19;1863;-74
2023/01/17 07:31:36;;;;;;;;;;;;;;;;;;7369004;19;851;-74
2023/01/17 07:34:05;;;;;;;;;;;;;;;;;;7367600;19;1593;-75
2023/01/17 07:36:33;;;;;;;;;;;;;;;;;;7379637;19;818;-74
2023/01/17 07:39:01;;;;;;;;;;;;;;;;;;7382030;19;802;-74
2023/01/17 07:41:29;;;;;;;;;;;;;;;;;;7384080;19;1509;-74
2023/01/17 07:43:57;;;;;;;;;;;;;;;;;;7387496;19;1641;-72
2023/01/17 07:46:25;;;;;;;;;;;;;;;;;;7382396;19;791;-74
2023/01/17 07:48:54;;;;;;;;;;;;;;;;;;7382531;19;822;-74
2023/01/17 07:51:22;;;;;;;;;;;;;;;;;;7382029;19;1872;-76
2023/01/17 07:53:50;;;;;;;;;;;;;;;;;;7383516;19;1466;-74
2023/01/17 07:56:18;;;;;;;;;;;;;;;;;;7384898;19;764;-78
2023/01/17 07:58:47;;;;;;;;;;;;;;;;;;7387703;19;806;-75
2023/01/17 08:01:15;;;;;;;;;;;;;;;;;;7382660;19;978;-73
2023/01/17 08:03:44;;;;;;;;;;;;;;;;;;7380704;19;1294;-74
2023/01/17 08:06:12;;;;;;;;;;;;;;;;;;7384762;19;781;-77
2023/01/17 08:08:40;;;;;;;;;;;;;;;;;;7383378;19;755;-74
2023/01/17 08:11:08;;;;;;;;;;;;;;;;;;7381697;19;2113;-76
2023/01/17 08:13:37;;;;;;;;;;;;;;;;;;7382110;19;1865;-74
2023/01/17 08:16:05;;;;;;;;;;;;;;;;;;7383957;19;806;-75
2023/01/17 08:18:33;;;;;;;;;;;;;;;;;;7384074;19;870;-75
2023/01/17 08:21:01;;;;;;;;;;;;;;;;;;7384189;19;830;-76
2023/01/17 08:23:32;;;;;;;;;;;;;;;;;;7380277;19;1333;-75
2023/01/17 08:26:00;;;;;;;;;;;;;;;;;;7382575;19;807;-75
2023/01/17 08:28:29;;;;;;;;;;;;;;;;;;7380266;19;920;-76
2023/01/17 08:30:57;;;;;;;;;;;;;;;;;;7381172;19;1838;-77
2023/01/17 08:33:25;;;;;;;;;;;;;;;;;;7380183;19;1299;-78
2023/01/17 08:35:53;;;;;;;;;;;;;;;;;;7384698;19;972;-77
2023/01/17 08:38:22;;;;;;;;;;;;;;;;;;7382727;19;838;-75
2023/01/17 08:40:50;;;;;;;;;;;;;;;;;;7384563;19;788;-75
2023/01/17 08:43:19;;;;;;;;;;;;;;;;;;7380543;19;1310;-74
2023/01/17 08:45:47;;;;;;;;;;;;;;;;;;7386782;19;1473;-76
2023/01/17 08:48:15;;;;;;;;;;;;;;;;;;7378562;19;810;-76
2023/01/17 08:50:43;;;;;;;;;;;;;;;;;;7372463;19;1842;-76
2023/01/17 08:53:11;;;;;;;;;;;;;;;;;;7375339;19;1376;-77
2023/01/17 08:55:40;;;;;;;;;;;;;;;;;;7376772;19;851;-77
2023/01/17 08:58:08;;;;;;;;;;;;;;;;;;7377737;19;918;-78
2023/01/17 09:00:36;;;;;;;;;;;;;;;;;;7380822;19;713;-79
2023/01/17 09:03:09;;;;;;;;;;;;;;;;;;7376156;19;1302;-75
2023/01/17 09:05:38;;;;;;;;;;;;;;;;;;7372319;19;775;-74
2023/01/17 09:08:06;;;;;;;;;;;;;;;;;;7371004;19;828;-74
2023/01/17 09:10:34;;;;;;;;;;;;;;;;;;7374113;19;1846;-79
2023/01/17 09:13:02;;;;;;;;;;;;;;;;;;7374010;19;1277;-77
2023/01/17 09:15:31;;;;;;;;;;;;;;;;;;7374326;19;759;-78
2023/01/17 09:18:00;;;;;;;;;;;;;;;;;;7373196;19;1063;-77
2023/01/17 09:20:29;;;;;;;;;;;;;;;;;;7376134;19;823;-72
2023/01/17 09:22:57;;;;;;;;;;;;;;;;;;7372999;19;1380;-75
2023/01/17 09:25:26;;;;;;;;;;;;;;;;;;7373292;19;1075;-76
2023/01/17 09:27:54;;;;;;;;;;;;;;;;;;7372483;19;815;-75
2023/01/17 09:30:22;;;;;;;;;;;;;;;;;;7374263;19;1837;-78
2023/01/17 09:32:51;;;;;;;;;;;;;;;;;;7378026;19;1389;-78
2023/01/17 09:35:19;;;;;;;;;;;;;;;;;;7378659;19;883;-81
2023/01/17 09:37:48;;;;;;;;;;;;;;;;;;7378498;19;710;-78
2023/01/17 09:40:16;;;;;;;;;;;;;;;;;;7374223;19;882;-75
2023/01/17 09:42:44;;;;;;;;;;;;;;;;;;7373508;19;1384;-76
2023/01/17 09:45:12;;;;;;;;;;;;;;;;;;7376286;19;1719;-76
2023/01/17 09:47:41;;;;;;;;;;;;;;;;;;7373265;19;853;-76
2023/01/17 09:50:09;;;;;;;;;;;;;;;;;;7371350;19;1853;-75
2023/01/17 09:52:37;;;;;;;;;;;;;;;;;;7375515;19;1357;-75
2023/01/17 09:55:05;;;;;;;;;;;;;;;;;;7369852;19;803;-75
2023/01/17 09:57:34;;;;;;;;;;;;;;;;;;7372630;19;771;-75
2023/01/17 10:00:02;;;;;;;;;;;;;;;;;;7368777;19;841;-74
2023/01/17 10:02:34;;;;;;;;;;;;;;;;;;7372064;19;771;-75
2023/01/17 10:05:02;;;;;;;;;;;;;;;;;;7367412;19;1263;-75
2023/01/17 10:07:31;;;;;;;;;;;;;;;;;;7372105;19;778;-75
2023/01/17 10:09:59;;;;;;;;;;;;;;;;;;7369741;19;1808;-75
2023/01/17 10:12:27;;;;;;;;;;;;;;;;;;7372012;19;850;-75
2023/01/17 10:14:55;;;;;;;;;;;;;;;;;;7369954;19;1526;-75
2023/01/17 10:17:24;;;;;;;;;;;;;;;;;;7371656;19;973;-75
2023/01/17 10:19:52;;;;;;;;;;;;;;;;;;7370609;19;771;-75
2023/01/17 10:22:20;;;;;;;;;;;;;;;;;;7371306;19;835;-74
2023/01/17 10:24:48;;;;;;;;;;;;;;;;;;7368898;19;1330;-75
2023/01/17 10:27:16;;;;;;;;;;;;;;;;;;7372127;19;766;-75
2023/01/17 10:29:45;;;;;;;;;;;;;;;;;;7374678;19;779;-75
2023/01/17 10:32:13;;;;;;;;;;;;;;;;;;7371833;19;1815;-76
2023/01/17 10:37:25;;;;;;;;;;;;;;;;;;7372410;19;1521;-75
2023/01/17 10:39:53;;;;;;;;;;;;;;;;;;7370519;19;811;-75
2023/01/17 10:42:21;;;;;;;;;;;;;;;;;;7372786;19;1418;-76
2023/01/17 10:44:50;;;;;;;;;;;;;;;;;;7369081;19;1346;-76
2023/01/17 10:47:18;;;;;;;;;;;;;;;;;;7370857;19;834;-75
2023/01/17 10:49:46;;;;;;;;;;;;;;;;;;7369042;19;804;-75
2023/01/17 10:52:15;;;;;;;;;;;;;;;;;;7368983;19;1833;-75
2023/01/17 10:54:43;;;;;;;;;;;;;;;;;;7365770;19;1306;-75
2023/01/17 10:57:11;;;;;;;;;;;;;;;;;;7370393;19;867;-76
2023/01/17 10:59:40;;;;;;;;;;;;;;;;;;7367701;19;827;-76
2023/01/17 11:02:08;;;;;;;;;;;;;;;;;;7369456;19;827;-75
2023/01/17 11:04:37;;;;;;;;;;;;;;;;;;7369735;19;1329;-75
2023/01/17 11:07:05;;;;;;;;;;;;;;;;;;7369122;19;808;-75
2023/01/17 11:09:33;;;;;;;;;;;;;;;;;;7366834;19;816;-75
2023/01/17 11:12:01;;;;;;;;;;;;;;;;;;7367044;19;1849;-77
2023/01/17 11:14:30;;;;;;;;;;;;;;;;;;7370937;19;1985;-76
2023/01/17 11:16:58;;;;;;;;;;;;;;;;;;7373688;19;874;-74
2023/01/17 11:19:26;;;;;;;;;;;;;;;;;;7370633;19;790;-74
2023/01/17 11:21:56;;;;;;;;;;;;;;;;;;7370030;19;804;-75
2023/01/17 11:24:24;;;;;;;;;;;;;;;;;;7367581;19;1294;-76
2023/01/17 11:29:34;;;;;;;;;;;;;;;;;;7371997;19;855;-76
2023/01/17 11:32:02;;;;;;;;;;;;;;;;;;7369056;19;1801;-75
2023/01/17 11:34:30;;;;;;;;;;;;;;;;;;7367578;19;1263;-75
2023/01/17 11:36:59;;;;;;;;;;;;;;;;;;7369768;19;841;-74
2023/01/17 11:39:30;;;;;;;;;;;;;;;;;;7367196;19;798;-75
2023/01/17 11:41:58;;;;;;;;;;;;;;;;;;7371221;19;1878;-75
2023/01/17 11:44:26;;;;;;;;;;;;;;;;;;7371249;19;1892;-77
2023/01/17 11:46:54;;;;;;;;;;;;;;;;;;7368460;19;843;-76
2023/01/17 11:49:23;;;;;;;;;;;;;;;;;;7368815;19;744;-76
2023/01/17 11:51:54;;;;;;;;;;;;;;;;;;7366414;19;1853;-75
2023/01/17 11:54:23;;;;;;;;;;;;;;;;;;7368838;19;1396;-76
2023/01/17 11:56:51;;;;;;;;;;;;;;;;;;7374585;19;1696;-76
2023/01/17 11:59:19;;;;;;;;;;;;;;;;;;7369575;19;1451;-74
2023/01/17 12:01:47;;;;;;;;;;;;;;;;;;7373269;19;1583;-75
2023/01/17 12:04:16;;;;;;;;;;;;;;;;;;7367229;19;1322;-75
2023/01/17 12:06:44;;;;;;;;;;;;;;;;;;7370266;19;858;-76
2023/01/17 12:09:12;;;;;;;;;;;;;;;;;;7368714;19;824;-75
2023/01/17 12:13:59;;;;;;;;;;;;;;;;;;7366918;19;1847;-73
2023/01/17 12:14:26;;;;;;;;;;;;;;;;;;7367629;19;1260;-75
2023/01/17 12:16:54;;;;;;;;;;;;;;;;;;7370523;19;810;-74
2023/01/17 12:19:22;;;;;;;;;;;;;;;;;;7367909;19;913;-75
2023/01/17 12:21:50;;;;;;;;;;;;;;;;;;7369662;19;827;-75
2023/01/17 12:24:19;;;;;;;;;;;;;;;;;;7373380;19;1361;-74
2023/01/17 12:26:48;;;;;;;;;;;;;;;;;;7373572;19;815;-74
2023/01/17 12:29:16;;;;;;;;;;;;;;;;;;7372562;19;1503;-74
2023/01/17 12:31:45;;;;;;;;;;;;;;;;;;7375672;19;1865;-76
2023/01/17 12:34:13;;;;;;;;;;;;;;;;;;7371694;19;1377;-75
2023/01/17 12:36:41;;;;;;;;;;;;;;;;;;7374176;19;853;-74
2023/01/17 12:39:10;;;;;;;;;;;;;;;;;;7372799;19;811;-76
2023/01/17 12:41:39;;;;;;;;;;;;;;;;;;7375871;19;921;-77
2023/01/17 12:44:07;;;;;;;;;;;;;;;;;;7372241;19;1328;-75
2023/01/17 12:46:37;;;;;;;;;;;;;;;;;;7372775;19;808;-74
2023/01/17 12:49:05;;;;;;;;;;;;;;;;;;7374264;19;663;-75
2023/01/17 12:51:33;;;;;;;;;;;;;;;;;;7371466;19;1823;-74
2023/01/17 12:54:01;;;;;;;;;;;;;;;;;;7371620;19;1354;-76
2023/01/17 12:56:30;;;;;;;;;;;;;;;;;;7372955;19;861;-75
2023/01/17 12:58:58;;;;;;;;;;;;;;;;;;7374861;19;1695;-74
2023/01/17 13:01:26;;;;;;;;;;;;;;;;;;7371753;19;799;-74
2023/01/17 13:03:54;;;;;;;;;;;;;;;;;;7370611;19;1369;-76
2023/01/17 13:06:23;;;;;;;;;;;;;;;;;;7371640;19;811;-74
2023/01/17 13:08:51;;;;;;;;;;;;;;;;;;7372482;19;818;-76
2023/01/17 13:11:20;;;;;;;;;;;;;;;;;;7372294;19;1863;-76
2023/01/17 13:13:50;;;;;;;;;;;;;;;;;;7372368;19;1278;-78
2023/01/17 13:16:18;;;;;;;;;;;;;;;;;;7374034;19;858;-76
2023/01/17 13:18:46;;;;;;;;;;;;;;;;;;7371816;19;843;-79
2023/01/17 13:21:14;;;;;;;;;;;;;;;;;;7374114;19;823;-77
2023/01/17 13:23:42;;;;;;;;;;;;;;;;;;7371969;19;1286;-73
2023/01/17 13:26:11;;;;;;;;;;;;;;;;;;7372579;19;795;-73
2023/01/17 13:28:39;;;;;;;;;;;;;;;;;;7373984;19;2183;-76
2023/01/17 13:31:07;;;;;;;;;;;;;;;;;;7375692;19;1853;-76
2023/01/17 13:33:35;;;;;;;;;;;;;;;;;;7374778;19;1341;-76
2023/01/17 13:36:03;;;;;;;;;;;;;;;;;;7375278;19;794;-78
2023/01/17 13:38:31;;;;;;;;;;;;;;;;;;7376368;19;779;-78
2023/01/17 13:41:00;;;;;;;;;;;;;;;;;;7377118;19;882;-76
2023/01/17 13:43:28;;;;;;;;;;;;;;;;;;7376337;19;1356;-77
2023/01/17 13:45:56;;;;;;;;;;;;;;;;;;7375649;19;810;-77
2023/01/17 13:48:24;;;;;;;;;;;;;;;;;;7374425;19;811;-76
2023/01/17 13:50:54;;;;;;;;;;;;;;;;;;7377789;19;1438;-77
2023/01/17 13:53:22;;;;;;;;;;;;;;;;;;7376260;19;1849;-78
2023/01/17 13:55:52;;;;;;;;;;;;;;;;;;7376102;19;783;-78
2023/01/17 13:58:20;;;;;;;;;;;;;;;;;;7376167;19;1615;-76
2023/01/17 14:00:48;;;;;;;;;;;;;;;;;;7373577;19;1189;-76
2023/01/17 14:03:16;;;;;;;;;;;;;;;;;;7374361;19;1298;-76
2023/01/17 14:05:46;;;;;;;;;;;;;;;;;;7378077;19;1696;-76
2023/01/17 14:08:14;;;;;;;;;;;;;;;;;;7375756;19;1746;-76
2023/01/17 14:10:43;;;;;;;;;;;;;;;;;;7377300;19;1613;-76
2023/01/17 14:13:12;;;;;;;;;;;;;;;;;;7370216;19;1833;-75
2023/01/17 14:15:40;;;;;;;;;;;;;;;;;;7374011;19;818;-77
2023/01/17 14:18:08;;;;;;;;;;;;;;;;;;7374002;19;890;-76
2023/01/17 14:20:36;;;;;;;;;;;;;;;;;;7372780;19;802;-76
2023/01/17 14:23:04;;;;;;;;;;;;;;;;;;7372338;19;1278;-75
2023/01/17 14:25:32;;;;;;;;;;;;;;;;;;7373721;19;891;-76
2023/01/17 14:28:01;;;;;;;;;;;;;;;;;;7374317;19;834;-76
2023/01/17 14:30:29;;;;;;;;;;;;;;;;;;7378906;19;823;-76
2023/01/17 14:32:57;;;;;;;;;;;;;;;;;;7388494;19;1819;-75
2023/01/17 14:35:25;;;;;;;;;;;;;;;;;;7388794;19;770;-77
2023/01/17 14:37:56;;;;;;;;;;;;;;;;;;7394395;19;1863;-77
2023/01/17 14:40:25;;;;;;;;;;;;;;;;;;7386541;19;1607;-73
2023/01/17 14:42:53;;;;;;;;;;;;;;;;;;7390445;19;1610;-73
2023/01/17 14:45:21;;;;;;;;;;;;;;;;;;7382468;19;833;-72
2023/01/17 14:47:50;;;;;;;;;;;;;;;;;;7385426;19;867;-72
2023/01/17 14:50:18;;;;;;;;;;;;;;;;;;7389477;19;1636;-71
2023/01/17 14:52:46;;;;;;;;;;;;;;;;;;7387418;19;1863;-71
2023/01/17 14:55:14;;;;;;;;;;;;;;;;;;7388152;19;1015;-72
2023/01/17 14:57:42;;;;;;;;;;;;;;;;;;7391931;19;1881;-71
2023/01/17 15:00:14;;;;;;;;;;;;;;;;;;7392614;19;1514;-72
2023/01/17 15:02:43;;;;;;;;;;;;;;;;;;7389689;19;1708;-71
2023/01/17 15:05:11;;;;;;;;;;;;;;;;;;7388329;19;1446;-72
2023/01/17 15:07:39;;;;;;;;;;;;;;;;;;7384484;19;1517;-73
2023/01/17 15:10:07;;;;;;;;;;;;;;;;;;7376812;19;836;-71
2023/01/17 15:12:37;;;;;;;;;;;;;;;;;;7374033;19;1829;-72
2023/01/17 15:15:05;;;;;;;;;;;;;;;;;;7372407;19;1263;-71
2023/01/17 15:17:33;;;;;;;;;;;;;;;;;;7377557;19;1640;-71
2023/01/17 15:20:02;;;;;;;;;;;;;;;;;;7374019;19;809;-71
2023/01/17 15:22:30;;;;;;;;;;;;;;;;;;7377471;19;1937;-71
2023/01/17 15:24:58;;;;;;;;;;;;;;;;;;7370867;19;1871;-71
2023/01/17 15:27:26;;;;;;;;;;;;;;;;;;7378340;19;1931;-72
2023/01/17 15:29:57;;;;;;;;;;;;;;;;;;7373182;19;757;-71
2023/01/17 15:32:26;;;;;;;;;;;;;;;;;;7371672;19;1846;-72
2023/01/17 15:34:55;;;;;;;;;;;;;;;;;;7369942;19;1239;-72
2023/01/17 15:37:24;;;;;;;;;;;;;;;;;;7372756;19;1026;-71
2023/01/17 15:39:52;;;;;;;;;;;;;;;;;;7370221;19;833;-72
2023/01/17 15:42:20;;;;;;;;;;;;;;;;;;7368828;19;847;-71
2023/01/17 15:44:48;;;;;;;;;;;;;;;;;;7367576;19;1266;-72
2023/01/17 15:47:16;;;;;;;;;;;;;;;;;;7367968;19;863;-71
2023/01/17 15:49:44;;;;;;;;;;;;;;;;;;7366734;19;745;-73
2023/01/17 15:52:13;;;;;;;;;;;;;;;;;;7366244;19;1848;-72
2023/01/17 15:54:42;;;;;;;;;;;;;;;;;;7364590;19;2142;-72
2023/01/17 15:57:10;;;;;;;;;;;;;;;;;;7377283;19;1803;-72
2023/01/17 15:59:38;;;;;;;;;;;;;;;;;;7374527;19;1742;-71
2023/01/17 16:02:06;;;;;;;;;;;;;;;;;;7372826;19;814;-72
2023/01/17 16:04:35;;;;;;;;;;;;;;;;;;7371442;19;1310;-73
2023/01/17 16:07:04;;;;;;;;;;;;;;;;;;7375427;19;1580;-73
2023/01/17 16:09:32;;;;;;;;;;;;;;;;;;7371844;19;750;-73
2023/01/17 16:12:00;;;;;;;;;;;;;;;;;;7371966;19;1848;-73
2023/01/17 16:14:28;;;;;;;;;;;;;;;;;;7371733;19;1291;-73
2023/01/17 16:16:58;;;;;;;;;;;;;;;;;;7373100;19;807;-73
2023/01/17 16:19:26;;;;;;;;;;;;;;;;;;7372606;19;913;-73
2023/01/17 16:21:55;;;;;;;;;;;;;;;;;;7372407;19;804;-73
2023/01/17 16:24:24;;;;;;;;;;;;;;;;;;7370594;19;1298;-72
2023/01/17 16:26:52;;;;;;;;;;;;;;;;;;7371424;19;761;-72
2023/01/17 16:29:20;;;;;;;;;;;;;;;;;;7371815;19;753;-72
2023/01/17 16:31:48;;;;;;;;;;;;;;;;;;7371865;19;1830;-72
2023/01/17 16:34:17;;;;;;;;;;;;;;;;;;7371117;19;1270;-73
2023/01/17 16:36:45;;;;;;;;;;;;;;;;;;7371774;19;775;-72
2023/01/17 16:39:14;;;;;;;;;;;;;;;;;;7370879;19;775;-72
2023/01/17 16:41:42;;;;;;;;;;;;;;;;;;7371900;19;892;-71
2023/01/17 16:44:10;;;;;;;;;;;;;;;;;;7370663;19;1373;-72
2023/01/17 16:46:38;;;;;;;;;;;;;;;;;;7372981;19;802;-72
2023/01/17 16:49:06;;;;;;;;;;;;;;;;;;7372163;19;890;-72
2023/01/17 16:51:34;;;;;;;;;;;;;;;;;;7372481;19;814;-72
2023/01/17 16:54:02;;;;;;;;;;;;;;;;;;7369502;19;1846;-72
2023/01/17 16:56:31;;;;;;;;;;;;;;;;;;7374065;19;1387;-73
2023/01/17 16:58:59;;;;;;;;;;;;;;;;;;7370089;19;834;-72
2023/01/17 17:01:27;;;;;;;;;;;;;;;;;;7370734;19;791;-72
2023/01/17 17:03:55;;;;;;;;;;;;;;;;;;7369076;19;1380;-72
2023/01/17 17:06:23;;;;;;;;;;;;;;;;;;7369951;19;865;-72
2023/01/17 17:08:51;;;;;;;;;;;;;;;;;;7368168;19;770;-72
2023/01/17 17:11:20;;;;;;;;;;;;;;;;;;7369968;19;871;-72
2023/01/17 17:13:48;;;;;;;;;;;;;;;;;;7368328;19;1858;-72
2023/01/17 17:16:16;;;;;;;;;;;;;;;;;;7368060;19;788;-72
2023/01/17 17:18:44;;;;;;;;;;;;;;;;;;7369109;19;858;-72
2023/01/17 17:21:12;;;;;;;;;;;;;;;;;;7370572;19;835;-72
2023/01/17 17:23:40;;;;;;;;;;;;;;;;;;7368662;19;1345;-73
2023/01/17 17:26:09;;;;;;;;;;;;;;;;;;7372351;19;2129;-72
2023/01/17 17:28:37;;;;;;;;;;;;;;;;;;7367398;19;834;-72
2023/01/17 17:31:05;;;;;;;;;;;;;;;;;;7370572;19;2107;-72
2023/01/17 17:33:33;;;;;;;;;;;;;;;;;;7367469;19;1842;-72
2023/01/17 17:36:02;;;;;;;;;;;;;;;;;;7369810;19;847;-72
2023/01/17 17:38:33;;;;;;;;;;;;;;;;;;7368972;19;798;-73
2023/01/17 17:41:02;;;;;;;;;;;;;;;;;;7368982;19;768;-72
2023/01/17 17:43:30;;;;;;;;;;;;;;;;;;7368678;19;1350;-73
2023/01/17 17:45:58;;;;;;;;;;;;;;;;;;7368991;19;810;-72
2023/01/17 17:48:26;;;;;;;;;;;;;;;;;;7367562;19;843;-72
2023/01/17 17:50:54;;;;;;;;;;;;;;;;;;7369347;19;927;-72
2023/01/17 17:53:23;;;;;;;;;;;;;;;;;;7367966;19;1849;-72
2023/01/17 17:55:52;;;;;;;;;;;;;;;;;;7368425;19;777;-72
2023/01/17 17:58:20;;;;;;;;;;;;;;;;;;7368089;19;866;-72
2023/01/17 18:00:49;;;;;;;;;;;;;;;;;;7369479;19;893;-72
2023/01/17 18:03:17;;;;;;;;;;;;;;;;;;7368294;19;1215;-72
2023/01/17 18:05:46;;;;;;;;;;;;;;;;;;7369153;19;709;-72
2023/01/17 18:08:14;;;;;;;;;;;;;;;;;;7367773;19;999;-72
2023/01/17 18:10:43;;;;;;;;;;;;;;;;;;7369235;19;826;-72
2023/01/17 18:13:11;;;;;;;;;;;;;;;;;;7368073;19;1810;-72
2023/01/17 18:15:39;;;;;;;;;;;;;;;;;;7369355;19;862;-72
2023/01/17 18:18:07;;;;;;;;;;;;;;;;;;7368972;19;781;-72
2023/01/17 18:20:36;;;;;;;;;;;;;;;;;;7365436;19;865;-72
2023/01/17 18:23:04;;;;;;;;;;;;;;;;;;7368588;19;1269;-72
2023/01/17 18:25:32;;;;;;;;;;;;;;;;;;7370046;19;1656;-71
2023/01/17 18:28:00;;;;;;;;;;;;;;;;;;7366992;19;768;-71
2023/01/17 18:30:31;;;;;;;;;;;;;;;;;;7366840;19;863;-72
2023/01/17 18:32:59;;;;;;;;;;;;;;;;;;7366509;19;1847;-71
2023/01/17 18:35:28;;;;;;;;;;;;;;;;;;7371188;19;1084;-72
2023/01/17 18:37:56;;;;;;;;;;;;;;;;;;7370803;19;914;-71
2023/01/17 18:40:24;;;;;;;;;;;;;;;;;;7371610;19;1345;-71
2023/01/17 18:42:52;;;;;;;;;;;;;;;;;;7367797;19;1302;-71
2023/01/17 18:45:20;;;;;;;;;;;;;;;;;;7368214;19;822;-71
2023/01/17 18:47:49;;;;;;;;;;;;;;;;;;7367093;19;877;-71